createdAt,value
2022-08-11T00:02:38.187Z,101931.78
2022-08-11T00:05:13.107Z,101929.03
2022-08-11T00:07:49.409Z,101940.44
2022-08-11T00:10:23.024Z,101938.81
2022-08-11T00:12:54.567Z,101931.91
2022-08-11T00:15:30.626Z,101932.06
2022-08-11T00:18:06.969Z,101929.59
2022-08-11T00:20:36.921Z,101932.34
2022-08-11T00:23:08.621Z,101936.91
2022-08-11T00:25:39.955Z,101934.22
2022-08-11T00:28:31.247Z,101933.91
2022-08-11T00:31:04.239Z,101936.97
2022-08-11T00:33:44.518Z,101943.56
2022-08-11T00:36:15.733Z,101935.41
2022-08-11T00:38:45.229Z,101932.66
2022-08-11T00:41:36.651Z,101934.59
2022-08-11T00:44:10.005Z,101936.91
2022-08-11T00:46:57.213Z,101939.44
2022-08-11T00:49:54.523Z,101932.13
2022-08-11T00:52:47.677Z,101925.34
2022-08-11T00:55:35.861Z,101928.63
2022-08-11T00:58:40.239Z,101935.84
2022-08-11T01:01:23.281Z,101938.94
2022-08-11T01:04:08.635Z,101943.63
2022-08-11T01:08:01.868Z,101940.19
2022-08-11T01:11:00.785Z,101941.34
2022-08-11T01:14:12.770Z,101958.94
2022-08-11T01:16:52.045Z,101949.34
2022-08-11T01:19:22.130Z,101951.25
2022-08-11T01:22:07.536Z,101952.69
2022-08-11T01:25:11.708Z,101948.38
2022-08-11T01:28:15.100Z,101952.47
2022-08-11T01:31:23.841Z,101952.78
2022-08-11T01:34:27.609Z,101955.81
2022-08-11T01:37:07.238Z,101951.50
2022-08-11T01:40:24.476Z,101953.44
2022-08-11T01:43:33.602Z,101947.44
2022-08-11T01:46:23.133Z,101954.31
2022-08-11T01:49:58.480Z,101950.44
2022-08-11T01:52:42.166Z,101950.44
2022-08-11T01:55:23.987Z,101950.16
2022-08-11T01:58:09.808Z,101948.25
2022-08-11T02:00:54.944Z,101948.25
2022-08-11T02:03:38.584Z,101953.50
2022-08-11T02:06:47.285Z,101951.88
2022-08-11T02:09:29.167Z,101952.97
2022-08-11T02:12:13.963Z,101945.75
2022-08-11T02:15:05.729Z,101946.09
2022-08-11T02:17:54.721Z,101944.75
2022-08-11T02:20:47.456Z,101949.75
2022-08-11T02:24:03.950Z,101950.41
2022-08-11T02:26:41.165Z,101951.22
2022-08-11T02:29:23.420Z,101947.94
2022-08-11T02:32:44.499Z,101940.28
2022-08-11T02:35:25.405Z,101938.47
2022-08-11T02:38:27.892Z,101945.06
2022-08-11T02:41:26.592Z,101934.69
2022-08-11T02:44:09.806Z,101940.19
2022-08-11T02:46:56.457Z,101940.97
2022-08-11T02:50:06.459Z,101936.88
2022-08-11T02:53:01.064Z,101935.75
2022-08-11T02:55:56.425Z,101939.09
2022-08-11T02:58:41.139Z,101938.28
2022-08-11T03:01:38.054Z,101944.53
2022-08-11T03:04:16.383Z,101947.84
2022-08-11T03:07:05.836Z,101940.75
2022-08-11T03:10:03.168Z,101943.50
2022-08-11T03:13:30.799Z,101940.22
2022-08-11T03:16:15.849Z,101943.25
2022-08-11T03:19:14.648Z,101937.22
2022-08-11T03:22:02.409Z,101942.72
2022-08-11T03:24:56.070Z,101946.28
2022-08-11T03:27:36.670Z,101943.53
2022-08-11T03:30:10.439Z,101946.00
2022-08-11T03:33:21.106Z,101934.78
2022-08-11T03:36:05.765Z,101937.31
2022-08-11T03:39:02.965Z,101937.06
2022-08-11T03:42:10.108Z,101941.47
2022-08-11T03:44:48.524Z,101944.72
2022-08-11T03:47:41.693Z,101940.09
2022-08-11T03:50:55.200Z,101936.22
2022-08-11T03:53:53.304Z,101940.38
2022-08-11T03:56:35.502Z,101932.97
2022-08-11T03:59:04.780Z,101944.75
2022-08-11T04:01:58.444Z,101940.94
2022-08-11T04:04:35.560Z,101941.22
2022-08-11T04:07:28.191Z,101936.84
2022-08-11T04:10:28.495Z,101946.72
2022-08-11T04:13:20.019Z,101932.47
2022-08-11T04:16:12.238Z,101933.28
2022-08-11T04:19:16.823Z,101939.84
2022-08-11T04:21:56.464Z,101936.53
2022-08-11T04:24:54.012Z,101939.31
2022-08-11T04:27:38.975Z,101945.63
2022-08-11T04:30:27.935Z,101935.78
2022-08-11T04:33:28.081Z,101940.41
2022-08-11T04:36:43.565Z,101934.13
2022-08-11T04:39:25.079Z,101938.22
2022-08-11T04:42:47.947Z,101939.31
2022-08-11T04:45:54.132Z,101942.06
2022-08-11T04:49:04.103Z,101938.50
2022-08-11T04:52:21.259Z,101943.97
2022-08-11T04:55:40.447Z,101938.69
2022-08-11T04:58:52.277Z,101938.16
2022-08-11T05:01:41.633Z,101942.53
2022-08-11T05:04:31.887Z,101937.00
2022-08-11T05:07:17.021Z,101943.84
2022-08-11T05:09:46.433Z,101942.72
2022-08-11T05:12:22.914Z,101944.38
2022-08-11T05:15:43.006Z,101938.06
2022-08-11T05:18:39.793Z,101943.75
2022-08-11T05:21:30.563Z,101947.84
2022-08-11T05:24:38.911Z,101948.44
2022-08-11T05:27:28.228Z,101948.44
2022-08-11T05:30:28.301Z,101947.84
2022-08-11T05:33:27.820Z,101951.72
2022-08-11T05:36:17.831Z,101946.53
2022-08-11T05:39:13.318Z,101950.06
2022-08-11T05:42:00.129Z,101951.66
2022-08-11T05:44:47.345Z,101950.50
2022-08-11T05:47:44.209Z,101945.50
2022-08-11T05:50:33.135Z,101945.41
2022-08-11T05:53:21.502Z,101950.91
2022-08-11T05:56:09.977Z,101947.25
2022-08-11T05:58:42.604Z,101946.84
2022-08-11T06:01:21.727Z,101941.88
2022-08-11T06:04:12.349Z,101941.22
2022-08-11T06:06:47.120Z,101946.09
2022-08-11T06:09:14.656Z,101949.88
2022-08-11T06:11:44.939Z,101948.59
2022-08-11T06:14:13.078Z,101950.78
2022-08-11T06:16:41.876Z,101944.31
2022-08-11T06:19:09.120Z,101932.47
2022-08-11T06:21:36.579Z,101935.41
2022-08-11T06:24:24.918Z,101940.16
2022-08-11T06:29:54.751Z,101940.69
2022-08-11T06:32:32.405Z,101935.34
2022-08-11T06:35:13.132Z,101933.03
2022-08-11T06:37:55.521Z,101934.22
2022-08-11T06:40:30.001Z,101933.53
2022-08-11T06:43:11.786Z,101937.25
2022-08-11T06:46:03.130Z,101938.28
2022-08-11T06:48:32.958Z,101938.59
2022-08-11T06:51:13.696Z,101936.38
2022-08-11T06:54:04.166Z,101939.47
2022-08-11T07:00:13.030Z,101940.59
2022-08-11T07:03:00.691Z,101946.50
2022-08-11T07:05:48.731Z,101942.84
2022-08-11T07:08:41.811Z,101949.81
2022-08-11T07:11:48.991Z,101955.53
2022-08-11T07:14:41.281Z,101952.97
2022-08-11T07:17:14.546Z,101954.38
2022-08-11T07:20:05.479Z,101948.34
2022-08-11T07:22:52.616Z,101951.75
2022-08-11T07:25:40.660Z,101951.41
2022-08-11T07:28:31.052Z,101944.22
2022-08-11T07:31:04.731Z,101949.38
2022-08-11T07:34:07.041Z,101952.25
2022-08-11T07:36:31.822Z,101948.28
2022-08-11T07:38:59.458Z,101954.22
2022-08-11T07:41:28.583Z,101951.91
2022-08-11T07:44:09.105Z,101949.41
2022-08-11T07:47:00.758Z,101947.09
2022-08-11T07:49:49.324Z,101947.59
2022-08-11T07:52:35.077Z,101947.97
2022-08-11T07:55:08.457Z,101937.16
2022-08-11T07:58:15.823Z,101946.91
2022-08-11T08:01:10.224Z,101948.03
2022-08-11T08:04:03.027Z,101942.75
2022-08-11T08:06:51.236Z,101941.75
2022-08-11T08:09:38.507Z,101936.31
2022-08-11T08:12:26.239Z,101945.44
2022-08-11T08:15:14.518Z,101943.28
2022-08-11T08:18:20.602Z,101947.31
2022-08-11T08:20:47.598Z,101942.28
2022-08-11T08:23:14.853Z,101946.91
2022-08-11T08:25:44.819Z,101941.81
2022-08-11T08:28:15.512Z,101944.41
2022-08-11T08:30:51.888Z,101946.06
2022-08-11T08:33:23.622Z,101944.97
2022-08-11T08:36:12.894Z,101945.53
2022-08-11T08:38:47.817Z,101942.84
2022-08-11T08:41:19.567Z,101940.94
2022-08-11T08:43:51.824Z,101941.66
2022-08-11T08:46:25.417Z,101938.91
2022-08-11T08:48:53.854Z,101935.59
2022-08-11T08:52:39.179Z,101935.88
2022-08-11T08:54:25.634Z,101940.59
2022-08-11T08:56:56.190Z,101925.06
2022-08-11T08:59:27.143Z,101939.44
2022-08-11T09:02:14.191Z,101934.06
2022-08-11T09:04:44.929Z,101938.00
2022-08-11T09:07:17.738Z,101937.97
2022-08-11T09:09:50.142Z,101922.56
2022-08-11T09:12:35.688Z,101929.44
2022-08-11T09:15:10.189Z,101917.28
2022-08-11T09:17:42.271Z,101922.16
2022-08-11T09:20:13.139Z,101913.50
2022-08-11T09:26:12.465Z,101913.75
2022-08-11T09:28:41.519Z,101911.44
2022-08-11T09:31:08.567Z,101909.88
2022-08-11T09:33:36.391Z,101902.22
2022-08-11T09:36:23.679Z,101901.81
2022-08-11T09:39:15.278Z,101893.38
2022-08-11T09:42:01.460Z,101893.75
2022-08-11T09:44:51.877Z,101891.69
2022-08-11T09:47:23.921Z,101888.72
2022-08-11T09:49:54.373Z,101891.50
2022-08-11T09:52:23.811Z,101889.22
2022-08-11T09:54:53.695Z,101880.53
2022-08-11T09:57:41.430Z,101877.44
2022-08-11T10:00:14.386Z,101878.69
2022-08-11T10:02:47.813Z,101878.38
2022-08-11T10:05:38.061Z,101880.53
2022-08-11T10:08:05.929Z,101872.81
2022-08-11T10:10:39.050Z,101868.16
2022-08-11T10:14:31.723Z,101866.97
2022-08-11T10:16:15.803Z,101868.59
2022-08-11T10:18:53.403Z,101868.53
2022-08-11T10:21:34.494Z,101861.28
2022-08-11T10:24:20.876Z,101856.34
2022-08-11T10:26:53.804Z,101845.78
2022-08-11T10:29:49.554Z,101842.09
2022-08-11T10:32:52.778Z,101837.13
2022-08-11T10:35:31.557Z,101842.81
2022-08-11T10:38:07.916Z,101841.28
2022-08-11T10:40:39.389Z,101836.31
2022-08-11T10:43:10.445Z,101826.63
2022-08-11T10:45:57.863Z,101825.28
2022-08-11T10:48:30.474Z,101829.16
2022-08-11T10:51:13.572Z,101814.72
2022-08-11T10:54:12.812Z,101822.56
2022-08-11T10:56:58.336Z,101819.84
2022-08-11T10:59:28.035Z,101809.28
2022-08-11T11:01:55.529Z,101809.41
2022-08-11T11:04:39.700Z,101809.88
2022-08-11T11:07:14.947Z,101806.59
2022-08-11T11:09:48.463Z,101799.97
2022-08-11T11:12:42.099Z,101799.44
2022-08-11T11:15:28.892Z,101812.94
2022-08-11T11:18:01.965Z,101801.41
2022-08-11T11:20:53.805Z,101794.84
2022-08-11T11:23:41.753Z,101795.06
2022-08-11T11:26:27.305Z,101793.84
2022-08-11T11:29:06.380Z,101786.88
2022-08-11T11:32:16.851Z,101784.09
2022-08-11T11:35:13.745Z,101789.53
2022-08-11T11:37:56.159Z,101778.84
2022-08-11T11:40:31.660Z,101783.88
2022-08-11T11:42:59.943Z,101780.84
2022-08-11T11:45:26.945Z,101780.72
2022-08-11T11:47:55.476Z,101780.03
2022-08-11T11:50:24.672Z,101778.84
2022-08-11T11:52:55.383Z,101779.28
2022-08-11T11:55:24.789Z,101783.34
2022-08-11T11:58:18.838Z,101777.34
2022-08-11T12:01:06.073Z,101772.97
2022-08-11T12:03:35.614Z,101781.63
2022-08-11T12:06:03.508Z,101779.25
2022-08-11T12:08:31.196Z,101770.59
2022-08-11T12:11:22.787Z,101771.81
2022-08-11T12:13:53.112Z,101765.56
2022-08-11T12:16:34.371Z,101763.50
2022-08-11T12:19:06.016Z,101756.00
2022-08-11T12:21:35.038Z,101748.94
2022-08-11T12:24:21.846Z,101753.81
2022-08-11T12:27:15.066Z,101744.97
2022-08-11T12:29:45.913Z,101752.53
2022-08-11T12:32:12.935Z,101736.03
2022-08-11T12:34:39.502Z,101734.44
2022-08-11T12:37:10.963Z,101731.06
2022-08-11T12:40:16.752Z,101739.22
2022-08-11T12:43:20.759Z,101729.59
2022-08-11T12:45:58.268Z,101717.84
2022-08-11T12:49:01.173Z,101718.25
2022-08-11T12:52:12.417Z,101718.00
2022-08-11T12:54:45.616Z,101706.41
2022-08-11T12:57:45.607Z,101699.50
2022-08-11T13:00:32.357Z,101708.81
2022-08-11T13:03:18.033Z,101702.44
2022-08-11T13:05:46.712Z,101703.19
2022-08-11T13:08:17.279Z,101705.59
2022-08-11T13:11:04.402Z,101697.06
2022-08-11T13:13:54.454Z,101697.50
2022-08-11T13:16:20.531Z,101690.78
2022-08-11T13:18:47.678Z,101691.94
2022-08-11T13:21:20.185Z,101686.75
2022-08-11T13:24:00.814Z,101684.78
2022-08-11T13:26:43.467Z,101668.69
2022-08-11T13:29:26.333Z,101675.53
2022-08-11T13:31:55.829Z,101665.88
2022-08-11T13:34:24.693Z,101672.28
2022-08-11T13:36:54.156Z,101675.91
2022-08-11T13:39:24.416Z,101669.09
2022-08-11T13:41:53.584Z,101665.94
2022-08-11T13:44:25.511Z,101658.28
2022-08-11T13:46:58.267Z,101659.06
2022-08-11T13:49:26.546Z,101661.50
2022-08-11T13:51:55.032Z,101664.31
2022-08-11T13:54:25.935Z,101665.53
2022-08-11T13:57:08.026Z,101667.53
2022-08-11T13:59:51.839Z,101663.50
2022-08-11T14:02:29.259Z,101658.28
2022-08-11T14:05:02.629Z,101648.63
2022-08-11T14:07:37.355Z,101643.00
2022-08-11T14:10:07.151Z,101647.81
2022-08-11T14:12:54.024Z,101643.81
2022-08-11T14:15:26.745Z,101635.75
2022-08-11T14:18:01.950Z,101639.78
2022-08-11T14:20:51.130Z,101637.41
2022-08-11T14:23:19.173Z,101635.00
2022-08-11T14:26:05.968Z,101628.53
2022-08-11T14:28:39.896Z,101631.38
2022-08-11T14:31:11.777Z,101626.53
2022-08-11T14:33:59.282Z,101625.75
2022-08-11T14:36:28.526Z,101623.72
2022-08-11T14:38:55.917Z,101610.09
2022-08-11T14:42:09.916Z,101618.91
2022-08-11T14:44:51.776Z,101618.94
2022-08-11T14:47:24.627Z,101613.28
2022-08-11T14:50:09.719Z,101611.69
2022-08-11T14:52:39.732Z,101608.47
2022-08-11T14:55:27.100Z,101604.47
2022-08-11T14:57:57.110Z,101602.44
2022-08-11T15:00:24.930Z,101611.66
2022-08-11T15:03:10.369Z,101604.44
2022-08-11T15:05:55.747Z,101602.00
2022-08-11T15:08:46.366Z,101605.59
2022-08-11T15:11:33.352Z,101600.41
2022-08-11T15:14:02.583Z,101608.88
2022-08-11T15:16:48.209Z,101595.59
2022-08-11T15:19:16.727Z,101596.81
2022-08-11T15:22:01.989Z,101587.59
2022-08-11T15:24:30.674Z,101588.78
2022-08-11T15:27:19.433Z,101595.63
2022-08-11T15:30:06.430Z,101586.41
2022-08-11T15:32:53.940Z,101584.38
2022-08-11T15:35:39.858Z,101579.56
2022-08-11T15:38:11.554Z,101571.53
2022-08-11T15:40:59.092Z,101576.72
2022-08-11T15:43:49.903Z,101576.34
2022-08-11T15:46:20.779Z,101569.50
2022-08-11T15:48:56.091Z,101572.34
2022-08-11T15:51:36.175Z,101571.91
2022-08-11T15:54:11.119Z,101570.34
2022-08-11T15:56:42.584Z,101559.47
2022-08-11T15:59:41.931Z,101563.13
2022-08-11T16:02:25.336Z,101554.25
2022-08-11T16:04:54.196Z,101558.25
2022-08-11T16:07:27.278Z,101545.81
2022-08-11T16:10:07.639Z,101547.47
2022-08-11T16:12:39.563Z,101541.84
2022-08-11T16:15:28.167Z,101545.00
2022-08-11T16:18:01.960Z,101531.34
2022-08-11T16:20:30.678Z,101537.78
2022-08-11T16:23:02.944Z,101536.19
2022-08-11T16:27:02.994Z,101527.72
2022-08-11T16:28:22.198Z,101525.75
2022-08-11T16:30:49.732Z,101528.13
2022-08-11T16:33:48.237Z,101530.50
2022-08-11T16:36:24.679Z,101525.25
2022-08-11T16:38:53.248Z,101528.03
2022-08-11T16:41:41.154Z,101529.59
2022-08-11T16:44:36.850Z,101521.19
2022-08-11T16:47:06.950Z,101520.81
2022-08-11T16:49:36.651Z,101521.22
2022-08-11T16:52:05.882Z,101524.00
2022-08-11T16:54:34.154Z,101519.59
2022-08-11T16:57:26.529Z,101519.97
2022-08-11T16:59:58.059Z,101512.34
2022-08-11T17:02:48.949Z,101519.56
2022-08-11T17:06:00.562Z,101514.34
2022-08-11T17:08:57.534Z,101515.06
2022-08-11T17:11:49.548Z,101514.25
2022-08-11T17:14:35.465Z,101515.78
2022-08-11T17:17:05.915Z,101512.97
2022-08-11T17:20:38.545Z,101515.75
2022-08-11T17:22:41.643Z,101513.69
2022-08-11T17:25:09.629Z,101506.81
2022-08-11T17:27:38.949Z,101513.22
2022-08-11T17:30:07.623Z,101512.88
2022-08-11T17:33:00.614Z,101513.63
2022-08-11T17:35:38.459Z,101511.16
2022-08-11T17:38:10.083Z,101503.88
2022-08-11T17:41:00.368Z,101505.44
2022-08-11T17:43:46.950Z,101498.50
2022-08-11T17:46:34.035Z,101499.09
2022-08-11T17:49:01.669Z,101490.34
2022-08-11T17:51:48.988Z,101496.63
2022-08-11T17:54:34.716Z,101497.38
2022-08-11T17:57:22.073Z,101494.47
2022-08-11T17:59:56.238Z,101499.13
2022-08-11T18:02:52.271Z,101507.34
2022-08-11T18:05:22.250Z,101508.41
2022-08-11T18:08:11.475Z,101504.81
2022-08-11T18:10:58.430Z,101514.38
2022-08-11T18:13:47.741Z,101504.16
2022-08-11T18:16:33.380Z,101500.03
2022-08-11T18:19:19.076Z,101510.25
2022-08-11T18:22:14.877Z,101508.94
2022-08-11T18:25:08.989Z,101504.34
2022-08-11T18:27:56.755Z,101522.94
2022-08-11T18:30:43.633Z,101531.34
2022-08-11T18:36:45.996Z,101531.41
2022-08-11T18:39:33.317Z,101525.94
2022-08-11T18:42:28.844Z,101532.91
2022-08-11T18:45:45.164Z,101537.53
2022-08-11T18:48:35.931Z,101534.09
2022-08-11T18:51:30.377Z,101537.41
2022-08-11T18:54:25.973Z,101534.06
2022-08-11T18:57:13.210Z,101541.00
2022-08-11T19:00:02.660Z,101535.72
2022-08-11T19:02:51.252Z,101532.31
2022-08-11T19:06:31.723Z,101536.13
2022-08-11T19:08:49.156Z,101533.47
2022-08-11T19:11:34.853Z,101537.72
2022-08-11T19:14:28.902Z,101545.88
2022-08-11T19:17:15.265Z,101547.22
2022-08-11T19:20:26.563Z,101546.81
2022-08-11T19:23:14.792Z,101544.88
2022-08-11T19:26:02.620Z,101557.81
2022-08-11T19:28:49.363Z,101554.75
2022-08-11T19:31:34.958Z,101548.09
2022-08-11T19:34:21.220Z,101558.88
2022-08-11T19:37:07.923Z,101559.41
2022-08-11T19:39:54.319Z,101559.94
2022-08-11T19:42:40.944Z,101557.34
2022-08-11T19:45:29.589Z,101559.44
2022-08-11T19:48:31.353Z,101564.81
2022-08-11T19:51:18.146Z,101561.28
2022-08-11T19:54:06.527Z,101569.09
2022-08-11T19:56:52.671Z,101565.28
2022-08-11T19:59:39.649Z,101567.66
2022-08-11T20:02:25.213Z,101558.75
2022-08-11T20:05:11.212Z,101555.31
2022-08-11T20:07:57.017Z,101560.63
2022-08-11T20:10:46.805Z,101562.25
2022-08-11T20:13:32.380Z,101561.59
2022-08-11T20:16:18.736Z,101569.38
2022-08-11T20:19:05.533Z,101563.13
2022-08-11T20:21:51.831Z,101567.28
2022-08-11T20:24:38.662Z,101567.53
2022-08-11T20:27:25.639Z,101562.66
2022-08-11T20:30:12.704Z,101572.06
2022-08-11T20:32:59.418Z,101574.25
2022-08-11T20:35:45.273Z,101573.22
2022-08-11T20:38:33.750Z,101578.13
2022-08-11T20:41:21.520Z,101579.03
2022-08-11T20:44:09.602Z,101577.41
2022-08-11T20:46:57.813Z,101581.81
2022-08-11T20:49:52.598Z,101582.50
2022-08-11T20:52:48.051Z,101584.44
2022-08-11T20:55:51.838Z,101583.50
2022-08-11T21:01:46.339Z,101590.66
2022-08-11T21:04:32.801Z,101588.44
2022-08-11T21:07:28.347Z,101591.88
2022-08-11T21:10:23.424Z,101589.44
2022-08-11T21:13:24.998Z,101591.22
2022-08-11T21:16:25.791Z,101589.72
2022-08-11T21:19:55.177Z,101598.13
2022-08-11T21:22:59.090Z,101598.25
2022-08-11T21:25:59.271Z,101599.22
2022-08-11T21:28:46.439Z,101600.41
2022-08-11T21:31:33.606Z,101597.84
2022-08-11T21:34:20.968Z,101597.84
2022-08-11T21:37:08.782Z,101598.59
2022-08-11T21:39:55.316Z,101607.31
2022-08-11T21:42:41.468Z,101606.66
2022-08-11T21:45:28.690Z,101606.53
2022-08-11T21:48:15.515Z,101605.72
2022-08-11T21:51:00.882Z,101608.19
2022-08-11T21:53:48.252Z,101612.63
2022-08-11T21:56:34.493Z,101615.91
2022-08-11T21:59:20.927Z,101608.78
2022-08-11T22:02:12.417Z,101614.19
2022-08-11T22:04:58.596Z,101616.34
2022-08-11T22:07:44.168Z,101612.91
2022-08-11T22:10:42.042Z,101616.16
2022-08-11T22:13:30.674Z,101611.13
2022-08-11T22:16:17.660Z,101618.94
2022-08-11T22:19:05.854Z,101612.72
2022-08-11T22:22:02.978Z,101611.78
2022-08-11T22:24:51.733Z,101614.09
2022-08-11T22:27:37.453Z,101617.03
2022-08-11T22:30:25.528Z,101615.94
2022-08-11T22:33:11.521Z,101612.22
2022-08-11T22:35:58.294Z,101615.78
2022-08-11T22:38:44.800Z,101613.69
2022-08-11T22:41:30.602Z,101618.09
2022-08-11T22:44:15.830Z,101610.09
2022-08-11T22:47:01.961Z,101618.91
2022-08-11T22:49:58.241Z,101617.94
2022-08-11T22:52:49.383Z,101616.13
2022-08-11T22:55:35.427Z,101625.09
2022-08-11T22:58:22.501Z,101621.50
2022-08-11T23:01:09.081Z,101625.75
2022-08-11T23:03:55.584Z,101623.78
2022-08-11T23:06:41.577Z,101620.41
2022-08-11T23:09:27.812Z,101623.63
2022-08-11T23:12:13.346Z,101623.47
2022-08-11T23:15:00.082Z,101619.91
2022-08-11T23:17:49.175Z,101626.34
2022-08-11T23:20:43.183Z,101626.81
2022-08-11T23:23:33.658Z,101618.88
2022-08-11T23:26:20.401Z,101625.34
2022-08-11T23:29:06.319Z,101631.34
2022-08-11T23:31:53.916Z,101625.16
2022-08-11T23:35:36.985Z,101629.03
2022-08-11T23:37:48.434Z,101618.13
2022-08-11T23:40:33.686Z,101621.03
2022-08-11T23:43:19.589Z,101616.03
2022-08-11T23:46:05.196Z,101612.28
2022-08-11T23:48:51.447Z,101617.13
2022-08-11T23:51:40.614Z,101618.78
2022-08-11T23:54:27.786Z,101621.03
2022-08-11T23:57:14.016Z,101620.97
2022-08-11T23:59:59.172Z,101620.44
